createdAt,value
2019-06-20T00:00:40.348Z,100.00
2019-06-20T00:03:09.711Z,100.00
2019-06-20T00:05:39.124Z,100.00
2019-06-20T00:08:09.472Z,100.00
2019-06-20T00:10:38.828Z,100.00
2019-06-20T00:13:08.232Z,100.00
2019-06-20T00:15:40.332Z,100.00
2019-06-20T00:18:10.089Z,100.00
2019-06-20T00:20:39.463Z,100.00
2019-06-20T00:23:08.856Z,100.00
2019-06-20T00:25:38.213Z,100.00
2019-06-20T00:28:07.595Z,100.00
2019-06-20T00:30:37.004Z,100.00
2019-06-20T00:33:06.400Z,100.00
2019-06-20T00:35:35.771Z,100.00
2019-06-20T00:38:05.173Z,100.00
2019-06-20T00:40:34.543Z,100.00
2019-06-20T00:43:17.101Z,100.00
2019-06-20T00:45:35.053Z,100.00
2019-06-20T00:48:05.506Z,100.00
2019-06-20T00:50:34.836Z,100.00
2019-06-20T00:53:04.217Z,100.00
2019-06-20T00:55:33.607Z,100.00
2019-06-20T00:58:02.978Z,100.00
2019-06-20T01:00:32.343Z,100.00
2019-06-20T01:03:01.850Z,100.00
2019-06-20T01:05:31.290Z,100.00
2019-06-20T01:08:00.685Z,100.00
2019-06-20T01:10:30.164Z,100.00
2019-06-20T01:12:59.528Z,100.00
2019-06-20T01:15:28.939Z,100.00
2019-06-20T01:17:58.336Z,100.00
2019-06-20T01:20:27.732Z,100.00
2019-06-20T01:22:57.183Z,100.00
2019-06-20T01:25:35.899Z,100.00
2019-06-20T01:28:05.418Z,100.00
2019-06-20T01:30:34.868Z,100.00
2019-06-20T01:33:06.042Z,100.00
2019-06-20T01:35:35.485Z,100.00
2019-06-20T01:38:05.339Z,100.00
2019-06-20T01:40:34.740Z,100.00
2019-06-20T01:43:05.663Z,100.00
2019-06-20T01:45:35.047Z,100.00
2019-06-20T01:48:04.586Z,100.00
2019-06-20T01:50:34.055Z,100.00
2019-06-20T01:53:04.443Z,100.00
2019-06-20T01:55:33.820Z,100.00
2019-06-20T01:58:03.234Z,100.00
2019-06-20T02:00:38.494Z,100.00
2019-06-20T02:03:07.957Z,100.00
2019-06-20T02:05:37.343Z,100.00
2019-06-20T02:08:06.728Z,100.00
2019-06-20T02:10:36.396Z,100.00
2019-06-20T02:13:05.859Z,100.00
2019-06-20T02:15:35.246Z,100.00
2019-06-20T02:18:05.454Z,100.00
2019-06-20T02:20:41.457Z,100.00
2019-06-20T02:23:11.219Z,100.00
2019-06-20T02:25:40.588Z,100.00
2019-06-20T02:28:09.991Z,100.00
2019-06-20T02:30:39.442Z,100.00
2019-06-20T02:33:08.822Z,100.00
2019-06-20T02:35:38.228Z,100.00
2019-06-20T02:38:07.674Z,100.00
2019-06-20T02:40:37.181Z,100.00
2019-06-20T02:43:06.799Z,100.00
2019-06-20T02:45:36.370Z,100.00
2019-06-20T02:48:06.544Z,100.00
2019-06-20T02:50:36.053Z,100.00
2019-06-20T02:53:06.158Z,100.00
2019-06-20T02:55:35.557Z,100.00
2019-06-20T02:58:05.086Z,100.00
2019-06-20T03:00:43.523Z,100.00
2019-06-20T03:03:12.887Z,100.00
2019-06-20T03:05:42.269Z,100.00
2019-06-20T03:08:12.319Z,100.00
2019-06-20T03:10:41.726Z,100.00
2019-06-20T03:13:11.111Z,100.00
2019-06-20T03:15:40.495Z,100.00
2019-06-20T03:18:09.883Z,100.00
2019-06-20T03:20:39.242Z,100.00
2019-06-20T03:23:08.771Z,100.00
2019-06-20T03:25:38.127Z,100.00
2019-06-20T03:28:07.506Z,100.00
2019-06-20T03:30:36.911Z,100.00
2019-06-20T03:33:06.299Z,100.00
2019-06-20T03:35:35.659Z,100.00
2019-06-20T03:38:05.120Z,100.00
2019-06-20T03:40:34.502Z,100.00
2019-06-20T03:43:03.888Z,100.00
2019-06-20T03:45:34.149Z,100.00
2019-06-20T03:48:03.527Z,100.00
2019-06-20T03:50:32.980Z,100.00
2019-06-20T03:53:02.332Z,100.00
2019-06-20T03:55:32.999Z,100.00
2019-06-20T03:58:03.544Z,100.00
2019-06-20T04:00:35.271Z,100.00
2019-06-20T04:03:05.769Z,100.00
2019-06-20T04:05:35.934Z,100.00
2019-06-20T04:08:05.296Z,100.00
2019-06-20T04:10:34.756Z,100.00
2019-06-20T04:13:04.304Z,100.00
2019-06-20T04:15:33.740Z,100.00
2019-06-20T04:18:03.095Z,100.00
2019-06-20T04:20:32.554Z,100.00
2019-06-20T04:23:01.996Z,100.00
2019-06-20T04:25:31.384Z,99.87
2019-06-20T04:28:00.746Z,99.83
2019-06-20T04:30:30.123Z,99.59
2019-06-20T04:32:59.581Z,99.46
2019-06-20T04:35:28.956Z,99.33
2019-06-20T04:37:58.323Z,99.16
2019-06-20T04:40:27.687Z,99.07
2019-06-20T04:42:57.049Z,98.93
2019-06-20T04:45:35.267Z,98.96
2019-06-20T04:47:59.152Z,99.02
2019-06-20T04:50:28.515Z,98.88
2019-06-20T04:52:57.898Z,98.74
2019-06-20T04:55:27.307Z,98.52
2019-06-20T04:57:56.675Z,98.41
2019-06-20T05:00:26.148Z,98.21
2019-06-20T05:02:55.536Z,98.19
2019-06-20T05:05:24.919Z,98.10
2019-06-20T05:07:54.326Z,97.94
2019-06-20T05:10:23.744Z,97.85
2019-06-20T05:12:56.000Z,97.73
2019-06-20T05:15:24.204Z,97.39
2019-06-20T05:17:53.832Z,97.31
2019-06-20T05:20:23.224Z,97.35
2019-06-20T05:22:52.595Z,97.38
2019-06-20T05:25:21.970Z,97.13
2019-06-20T05:27:51.369Z,96.52
2019-06-20T05:30:20.765Z,95.92
2019-06-20T05:32:50.164Z,95.66
2019-06-20T05:35:19.533Z,95.20
2019-06-20T05:37:50.520Z,94.94
2019-06-20T05:40:19.909Z,94.92
2019-06-20T05:42:49.301Z,94.78
2019-06-20T05:45:18.940Z,94.73
2019-06-20T05:47:49.930Z,94.24
2019-06-20T05:50:19.466Z,93.98
2019-06-20T05:52:48.835Z,93.93
2019-06-20T05:55:18.288Z,93.96
2019-06-20T05:57:47.698Z,93.38
2019-06-20T06:00:18.460Z,92.24
2019-06-20T06:02:47.932Z,91.50
2019-06-20T06:05:17.378Z,90.67
2019-06-20T06:07:46.752Z,90.56
2019-06-20T06:10:16.428Z,89.76
2019-06-20T06:12:45.804Z,88.86
2019-06-20T06:15:16.471Z,87.87
2019-06-20T06:17:45.860Z,86.73
2019-06-20T06:20:15.570Z,85.91
2019-06-20T06:22:45.039Z,85.02
2019-06-20T06:25:15.561Z,83.25
2019-06-20T06:27:44.939Z,79.62
2019-06-20T06:30:16.051Z,76.87
2019-06-20T06:32:45.487Z,75.43
2019-06-20T06:35:15.373Z,75.15
2019-06-20T06:37:44.752Z,73.90
2019-06-20T06:40:15.922Z,74.09
2019-06-20T06:42:45.305Z,74.27
2019-06-20T06:45:17.445Z,74.63
2019-06-20T06:47:46.819Z,74.24
2019-06-20T06:50:17.528Z,73.99
2019-06-20T06:52:47.861Z,72.68
2019-06-20T06:55:17.398Z,71.82
2019-06-20T06:57:46.761Z,69.62
2019-06-20T07:00:21.287Z,69.01
2019-06-20T07:02:50.780Z,68.26
2019-06-20T07:05:20.209Z,69.62
2019-06-20T07:07:49.719Z,70.37
2019-06-20T07:10:21.242Z,71.15
2019-06-20T07:12:50.693Z,71.31
2019-06-20T07:15:20.511Z,71.22
2019-06-20T07:17:49.948Z,71.79
2019-06-20T07:20:19.679Z,72.35
2019-06-20T07:22:50.675Z,72.52
2019-06-20T07:25:21.603Z,73.09
2019-06-20T07:27:50.981Z,73.57
2019-06-20T07:30:21.099Z,74.60
2019-06-20T07:32:50.644Z,75.32
2019-06-20T07:35:20.431Z,76.19
2019-06-20T07:37:50.364Z,76.52
2019-06-20T07:40:19.883Z,76.74
2019-06-20T07:42:49.249Z,76.76
2019-06-20T07:45:21.689Z,76.20
2019-06-20T07:47:51.065Z,74.79
2019-06-20T07:50:20.500Z,73.08
2019-06-20T07:53:01.513Z,69.01
2019-06-20T07:55:20.954Z,64.79
2019-06-20T07:57:50.347Z,61.47
2019-06-20T08:00:19.971Z,62.14
2019-06-20T08:02:49.339Z,63.25
2019-06-20T08:05:19.081Z,64.42
2019-06-20T08:07:48.513Z,65.62
2019-06-20T08:10:20.970Z,66.25
2019-06-20T08:12:50.365Z,66.41
2019-06-20T08:15:20.116Z,63.34
2019-06-20T08:17:49.611Z,61.50
2019-06-20T08:20:19.324Z,58.17
2019-06-20T08:22:48.719Z,55.99
2019-06-20T08:25:18.713Z,55.46
2019-06-20T08:27:54.057Z,57.46
2019-06-20T08:30:29.356Z,59.42
2019-06-20T08:33:01.173Z,59.65
2019-06-20T08:35:31.779Z,60.97
2019-06-20T08:38:03.789Z,61.50
2019-06-20T08:40:36.296Z,62.08
2019-06-20T08:43:06.248Z,61.82
2019-06-20T08:45:36.888Z,60.27
2019-06-20T08:48:07.442Z,56.53
2019-06-20T08:50:37.135Z,55.35
2019-06-20T08:53:06.757Z,52.85
2019-06-20T08:55:36.794Z,53.56
2019-06-20T08:58:06.888Z,51.50
2019-06-20T09:00:38.722Z,50.53
2019-06-20T09:03:08.170Z,51.28
2019-06-20T09:05:38.690Z,52.59
2019-06-20T09:08:11.341Z,51.54
2019-06-20T09:10:41.003Z,50.21
2019-06-20T09:13:12.123Z,50.63
2019-06-20T09:15:42.880Z,51.45
2019-06-20T09:18:12.491Z,52.11
2019-06-20T09:20:41.991Z,52.38
2019-06-20T09:23:11.428Z,52.69
2019-06-20T09:25:40.908Z,53.37
2019-06-20T09:28:10.510Z,55.18
2019-06-20T09:30:40.417Z,55.55
2019-06-20T09:33:09.922Z,54.86
2019-06-20T09:35:39.316Z,54.99
2019-06-20T09:38:08.777Z,55.46
2019-06-20T09:40:38.206Z,57.28
2019-06-20T09:43:07.614Z,56.70
2019-06-20T09:45:37.163Z,55.96
2019-06-20T09:48:06.629Z,55.25
2019-06-20T09:50:36.747Z,53.83
2019-06-20T09:53:06.236Z,53.66
2019-06-20T09:55:35.760Z,53.38
2019-06-20T09:58:05.522Z,52.77
2019-06-20T10:00:37.019Z,51.26
2019-06-20T10:03:06.689Z,49.76
2019-06-20T10:05:36.895Z,48.97
2019-06-20T10:08:06.281Z,49.41
2019-06-20T10:10:36.511Z,48.83
2019-06-20T10:13:05.962Z,48.08
2019-06-20T10:15:37.569Z,49.14
2019-06-20T10:18:07.489Z,48.69
2019-06-20T10:20:39.032Z,48.15
2019-06-20T10:23:08.305Z,47.64
2019-06-20T10:25:38.022Z,46.31
2019-06-20T10:28:08.514Z,43.99
2019-06-20T10:30:37.930Z,42.54
2019-06-20T10:33:07.344Z,43.18
2019-06-20T10:35:37.781Z,43.42
2019-06-20T10:38:07.943Z,45.32
2019-06-20T10:40:37.398Z,45.16
2019-06-20T10:43:07.017Z,45.14
2019-06-20T10:45:38.136Z,45.68
2019-06-20T10:48:07.633Z,47.21
2019-06-20T10:50:37.211Z,48.04
2019-06-20T10:53:06.723Z,49.19
2019-06-20T10:55:37.217Z,49.83
2019-06-20T10:58:06.765Z,50.74
2019-06-20T11:00:36.130Z,51.66
2019-06-20T11:03:06.030Z,52.23
2019-06-20T11:05:35.420Z,52.90
2019-06-20T11:08:05.220Z,53.58
2019-06-20T11:10:35.026Z,53.92
2019-06-20T11:13:04.470Z,54.64
2019-06-20T11:15:34.083Z,54.64
2019-06-20T11:18:03.440Z,54.58
2019-06-20T11:20:32.815Z,54.71
2019-06-20T11:23:02.309Z,54.82
2019-06-20T11:25:31.783Z,55.11
2019-06-20T11:28:01.181Z,55.25
2019-06-20T11:30:45.010Z,54.98
2019-06-20T11:33:02.972Z,54.96
2019-06-20T11:35:32.719Z,55.47
2019-06-20T11:38:02.076Z,56.16
2019-06-20T11:40:31.446Z,56.18
2019-06-20T11:43:00.822Z,55.44
2019-06-20T11:45:30.294Z,55.05
2019-06-20T11:48:00.058Z,54.53
2019-06-20T11:50:29.455Z,54.66
2019-06-20T11:52:58.845Z,54.51
2019-06-20T11:55:28.213Z,54.46
2019-06-20T11:57:57.569Z,53.87
2019-06-20T12:00:27.861Z,54.03
2019-06-20T12:02:57.204Z,54.07
2019-06-20T12:05:26.577Z,53.91
2019-06-20T12:07:55.905Z,54.59
2019-06-20T12:10:25.284Z,54.38
2019-06-20T12:12:54.649Z,53.91
2019-06-20T12:15:24.962Z,53.80
2019-06-20T12:17:54.383Z,54.17
2019-06-20T12:20:24.199Z,54.96
2019-06-20T12:22:53.562Z,55.33
2019-06-20T12:25:23.276Z,55.20
2019-06-20T12:27:52.758Z,55.19
2019-06-20T12:30:23.146Z,55.65
2019-06-20T12:32:52.507Z,54.70
2019-06-20T12:35:21.860Z,54.91
2019-06-20T12:37:52.141Z,55.23
2019-06-20T12:40:22.828Z,55.49
2019-06-20T12:42:53.179Z,55.45
2019-06-20T12:45:22.538Z,55.83
2019-06-20T12:47:51.918Z,56.23
2019-06-20T12:50:21.391Z,56.45
2019-06-20T12:52:50.747Z,55.55
2019-06-20T12:55:20.153Z,55.77
2019-06-20T12:57:49.682Z,56.07
2019-06-20T13:00:20.785Z,56.38
2019-06-20T13:02:50.179Z,57.12
2019-06-20T13:05:21.093Z,57.64
2019-06-20T13:07:50.963Z,58.52
2019-06-20T13:10:20.822Z,59.25
2019-06-20T13:12:50.170Z,60.22
2019-06-20T13:15:20.681Z,61.13
2019-06-20T13:17:50.153Z,61.56
2019-06-20T13:20:20.535Z,62.82
2019-06-20T13:22:49.900Z,64.13
2019-06-20T13:25:19.349Z,65.25
2019-06-20T13:27:50.445Z,66.03
2019-06-20T13:30:19.910Z,66.35
2019-06-20T13:32:49.261Z,66.84
2019-06-20T13:35:18.975Z,66.29
2019-06-20T13:37:49.833Z,67.54
2019-06-20T13:40:19.784Z,67.36
2019-06-20T13:42:50.301Z,67.25
2019-06-20T13:45:22.794Z,67.67
2019-06-20T13:47:52.698Z,67.25
2019-06-20T13:52:51.657Z,68.25
2019-06-20T13:55:20.981Z,68.76
2019-06-20T13:57:50.545Z,68.78
2019-06-20T14:00:22.082Z,68.50
2019-06-20T14:02:51.881Z,68.32
2019-06-20T14:05:21.276Z,68.08
2019-06-20T14:07:53.510Z,68.21
2019-06-20T14:10:22.641Z,68.92
2019-06-20T14:12:52.004Z,68.20
2019-06-20T14:15:21.634Z,68.79
2019-06-20T14:17:51.183Z,68.37
2019-06-20T14:20:21.335Z,68.15
2019-06-20T14:22:52.246Z,68.62
2019-06-20T14:25:21.751Z,68.78
2019-06-20T14:27:51.700Z,68.44
2019-06-20T14:30:21.604Z,67.68
2019-06-20T14:32:51.418Z,68.13
2019-06-20T14:35:21.169Z,68.59
2019-06-20T14:37:51.699Z,69.27
2019-06-20T14:40:22.439Z,70.05
2019-06-20T14:42:52.326Z,70.16
2019-06-20T14:45:22.752Z,70.14
2019-06-20T14:47:52.678Z,70.14
2019-06-20T14:50:22.321Z,70.56
2019-06-20T14:52:52.365Z,70.49
2019-06-20T14:55:22.262Z,70.96
2019-06-20T14:57:52.521Z,70.55
2019-06-20T15:00:22.732Z,70.74
2019-06-20T15:02:56.669Z,70.76
2019-06-20T15:05:23.310Z,70.37
2019-06-20T15:07:53.836Z,69.11
2019-06-20T15:10:23.741Z,67.50
2019-06-20T15:12:53.867Z,67.18
2019-06-20T15:15:25.150Z,66.01
2019-06-20T15:17:57.857Z,66.65
2019-06-20T15:20:26.549Z,67.12
2019-06-20T15:22:56.595Z,67.44
2019-06-20T15:25:27.252Z,67.35
2019-06-20T15:27:57.301Z,66.34
2019-06-20T15:30:26.806Z,66.39
2019-06-20T15:33:07.897Z,66.96
2019-06-20T15:35:27.562Z,67.88
2019-06-20T15:37:57.662Z,68.42
2019-06-20T15:40:27.404Z,68.74
2019-06-20T15:42:58.708Z,69.22
2019-06-20T15:45:28.001Z,69.59
2019-06-20T15:47:57.356Z,69.58
2019-06-20T15:50:26.774Z,70.19
2019-06-20T15:52:56.108Z,69.50
2019-06-20T15:55:25.474Z,69.29
2019-06-20T15:57:54.865Z,68.77
2019-06-20T16:00:24.525Z,68.88
2019-06-20T16:03:05.897Z,68.84
2019-06-20T16:05:24.913Z,67.93
2019-06-20T16:07:54.280Z,68.39
2019-06-20T16:10:23.632Z,68.57
2019-06-20T16:12:53.032Z,68.49
2019-06-20T16:15:23.248Z,67.73
2019-06-20T16:17:52.816Z,68.05
2019-06-20T16:20:22.339Z,68.28
2019-06-20T16:22:51.710Z,68.05
2019-06-20T16:25:21.533Z,67.72
2019-06-20T16:27:51.350Z,68.10
2019-06-20T16:30:21.246Z,68.53
2019-06-20T16:32:50.625Z,70.09
2019-06-20T16:35:20.130Z,72.05
2019-06-20T16:37:49.521Z,74.00
2019-06-20T16:40:24.546Z,75.99
2019-06-20T16:42:53.897Z,76.91
2019-06-20T16:45:23.375Z,77.54
2019-06-20T16:47:52.787Z,78.19
2019-06-20T16:50:23.713Z,78.59
2019-06-20T16:52:53.143Z,78.03
2019-06-20T16:55:22.601Z,77.90
2019-06-20T16:57:51.982Z,77.81
2019-06-20T17:00:21.517Z,77.46
2019-06-20T17:02:50.888Z,77.64
2019-06-20T17:05:20.505Z,77.20
2019-06-20T17:07:49.904Z,77.01
2019-06-20T17:10:19.387Z,77.20
2019-06-20T17:12:48.755Z,77.37
2019-06-20T17:15:18.423Z,77.55
2019-06-20T17:17:47.902Z,76.94
2019-06-20T17:20:17.931Z,76.49
2019-06-20T17:22:47.322Z,76.73
2019-06-20T17:25:16.858Z,76.54
2019-06-20T17:27:46.256Z,76.31
2019-06-20T17:30:18.098Z,76.24
2019-06-20T17:32:47.463Z,76.54
2019-06-20T17:35:19.079Z,76.97
2019-06-20T17:37:48.460Z,77.19
2019-06-20T17:40:18.778Z,77.37
2019-06-20T17:42:48.156Z,77.69
2019-06-20T17:45:17.966Z,78.42
2019-06-20T17:47:47.476Z,80.48
2019-06-20T17:50:17.185Z,81.51
2019-06-20T17:52:46.553Z,83.04
2019-06-20T17:55:16.367Z,83.92
2019-06-20T17:57:46.025Z,84.62
2019-06-20T18:00:17.938Z,85.75
2019-06-20T18:02:47.315Z,86.18
2019-06-20T18:05:17.319Z,86.36
2019-06-20T18:07:47.680Z,86.85
2019-06-20T18:10:18.000Z,87.59
2019-06-20T18:12:47.386Z,87.29
2019-06-20T18:15:17.596Z,87.64
2019-06-20T18:17:47.010Z,88.47
2019-06-20T18:20:17.156Z,88.60
2019-06-20T18:22:46.527Z,88.80
2019-06-20T18:25:17.043Z,88.87
2019-06-20T18:27:46.502Z,89.01
2019-06-20T18:30:16.032Z,89.19
2019-06-20T18:32:45.451Z,89.55
2019-06-20T18:35:14.876Z,90.00
2019-06-20T18:37:44.248Z,90.11
2019-06-20T18:40:13.998Z,90.37
2019-06-20T18:42:43.400Z,90.53
2019-06-20T18:45:13.489Z,90.97
2019-06-20T18:47:42.889Z,91.29
2019-06-20T18:50:12.539Z,91.48
2019-06-20T18:52:51.616Z,91.85
2019-06-20T18:55:13.251Z,92.20
2019-06-20T18:57:42.715Z,92.57
2019-06-20T19:00:14.076Z,92.83
2019-06-20T19:02:43.448Z,92.94
2019-06-20T19:05:13.858Z,93.03
2019-06-20T19:07:43.350Z,93.17
2019-06-20T19:10:13.151Z,93.35
2019-06-20T19:12:42.530Z,93.46
2019-06-20T19:15:12.961Z,93.58
2019-06-20T19:17:42.339Z,93.76
2019-06-20T19:20:12.070Z,94.11
2019-06-20T19:22:41.440Z,94.39
2019-06-20T19:25:11.869Z,94.69
2019-06-20T19:27:46.790Z,94.93
2019-06-20T19:30:16.383Z,95.09
2019-06-20T19:32:45.764Z,95.22
2019-06-20T19:35:15.622Z,95.44
2019-06-20T19:37:45.017Z,95.68
2019-06-20T19:40:14.953Z,95.74
2019-06-20T19:42:44.327Z,95.63
2019-06-20T19:45:14.158Z,95.70
2019-06-20T19:47:43.538Z,95.63
2019-06-20T19:50:13.813Z,95.68
2019-06-20T19:52:43.208Z,95.68
2019-06-20T19:55:13.151Z,95.68
2019-06-20T19:57:42.532Z,95.80
2019-06-20T20:00:12.441Z,95.84
2019-06-20T20:02:41.946Z,95.85
2019-06-20T20:05:19.077Z,95.90
2019-06-20T20:07:42.741Z,95.89
2019-06-20T20:10:12.260Z,95.94
2019-06-20T20:12:41.643Z,96.05
2019-06-20T20:15:11.639Z,96.25
2019-06-20T20:17:41.016Z,96.37
2019-06-20T20:20:10.598Z,96.41
2019-06-20T20:22:39.985Z,96.36
2019-06-20T20:25:09.612Z,96.39
2019-06-20T20:27:38.997Z,96.56
2019-06-20T20:30:12.017Z,96.65
2019-06-20T20:32:41.489Z,96.69
2019-06-20T20:35:10.860Z,96.67
2019-06-20T20:37:40.239Z,96.68
2019-06-20T20:40:10.342Z,96.71
2019-06-20T20:42:39.716Z,96.79
2019-06-20T20:45:10.763Z,96.90
2019-06-20T20:47:40.104Z,97.05
2019-06-20T20:50:11.317Z,97.18
2019-06-20T20:52:40.688Z,97.30
2019-06-20T20:55:11.007Z,97.34
2019-06-20T20:57:40.469Z,97.41
2019-06-20T21:00:12.585Z,97.53
2019-06-20T21:02:41.966Z,97.67
2019-06-20T21:05:11.357Z,97.83
2019-06-20T21:07:40.719Z,97.99
2019-06-20T21:10:11.851Z,98.11
2019-06-20T21:12:41.411Z,98.32
2019-06-20T21:15:11.129Z,98.53
2019-06-20T21:17:40.511Z,98.70
2019-06-20T21:20:10.635Z,98.62
2019-06-20T21:22:41.051Z,98.61
2019-06-20T21:25:10.682Z,98.84
2019-06-20T21:27:40.059Z,98.94
2019-06-20T21:30:11.468Z,98.92
2019-06-20T21:32:40.852Z,98.72
2019-06-20T21:35:10.947Z,98.60
2019-06-20T21:37:40.330Z,98.51
2019-06-20T21:40:11.337Z,98.47
2019-06-20T21:42:40.726Z,98.46
2019-06-20T21:45:10.732Z,98.45
2019-06-20T21:47:40.210Z,98.39
2019-06-20T21:50:10.206Z,98.33
2019-06-20T21:52:40.641Z,98.29
2019-06-20T21:55:10.230Z,98.26
2019-06-20T21:57:39.824Z,98.21
2019-06-20T22:00:30.634Z,98.21
2019-06-20T22:03:01.636Z,98.19
2019-06-20T22:05:31.013Z,98.14
2019-06-20T22:08:00.532Z,98.14
2019-06-20T22:10:29.961Z,98.20
2019-06-20T22:12:59.343Z,98.25
2019-06-20T22:15:28.890Z,98.37
2019-06-20T22:17:58.434Z,98.56
2019-06-20T22:20:28.460Z,98.77
2019-06-20T22:22:58.586Z,98.92
2019-06-20T22:25:28.029Z,99.01
2019-06-20T22:27:57.453Z,99.11
2019-06-20T22:30:46.675Z,99.21
2019-06-20T22:33:16.112Z,99.36
2019-06-20T22:35:46.214Z,99.41
2019-06-20T22:38:15.826Z,99.36
2019-06-20T22:40:45.744Z,99.33
2019-06-20T22:43:15.150Z,99.43
2019-06-20T22:45:44.805Z,99.61
2019-06-20T22:48:14.323Z,99.83
2019-06-20T22:50:43.862Z,99.93
2019-06-20T22:53:13.261Z,100.00
2019-06-20T22:55:42.676Z,100.00
2019-06-20T22:58:12.035Z,99.93
2019-06-20T23:00:41.434Z,99.87
2019-06-20T23:03:10.795Z,99.85
2019-06-20T23:05:40.187Z,99.80
2019-06-20T23:08:09.587Z,99.72
2019-06-20T23:10:38.954Z,99.59
2019-06-20T23:13:08.335Z,99.41
2019-06-20T23:15:37.732Z,99.24
2019-06-20T23:18:07.095Z,99.13
2019-06-20T23:20:36.476Z,99.06
2019-06-20T23:23:05.941Z,98.98
2019-06-20T23:25:36.803Z,98.97
2019-06-20T23:28:06.258Z,99.02
2019-06-20T23:30:35.600Z,99.11
2019-06-20T23:33:05.156Z,99.11
2019-06-20T23:35:34.725Z,99.28
2019-06-20T23:38:04.308Z,99.35
2019-06-20T23:40:33.659Z,99.36
2019-06-20T23:43:03.071Z,99.33
2019-06-20T23:45:32.469Z,99.28
2019-06-20T23:48:01.844Z,99.12
2019-06-20T23:50:31.259Z,98.99
2019-06-20T23:53:14.313Z,98.96
2019-06-20T23:55:43.787Z,98.98
2019-06-20T23:58:13.140Z,99.00
